sensor_id;sensor_type;location;lat;lon;timestamp;P1;durP1;ratioP1;P2;durP2;ratioP2
1010;SDS011;494;48.744;10.106;2023-06-10T00:00:11;19.93;;;14.63;;
1010;SDS011;494;48.744;10.106;2023-06-10T00:02:42;19.60;;;13.90;;
1010;SDS011;494;48.744;10.106;2023-06-10T00:05:12;20.50;;;13.90;;
1010;SDS011;494;48.744;10.106;2023-06-10T00:07:43;20.47;;;13.80;;
1010;SDS011;494;48.744;10.106;2023-06-10T00:10:13;21.60;;;14.30;;
1010;SDS011;494;48.744;10.106;2023-06-10T00:12:42;20.10;;;14.57;;
1010;SDS011;494;48.744;10.106;2023-06-10T00:15:11;22.03;;;14.13;;
1010;SDS011;494;48.744;10.106;2023-06-10T00:17:40;20.50;;;14.80;;
1010;SDS011;494;48.744;10.106;2023-06-10T00:20:10;19.90;;;13.80;;
1010;SDS011;494;48.744;10.106;2023-06-10T00:22:40;21.03;;;14.23;;
1010;SDS011;494;48.744;10.106;2023-06-10T00:25:12;20.00;;;14.23;;
1010;SDS011;494;48.744;10.106;2023-06-10T00:27:42;18.77;;;13.23;;
1010;SDS011;494;48.744;10.106;2023-06-10T00:30:13;19.93;;;13.80;;
1010;SDS011;494;48.744;10.106;2023-06-10T00:32:41;21.00;;;14.70;;
1010;SDS011;494;48.744;10.106;2023-06-10T00:35:10;20.40;;;14.80;;
1010;SDS011;494;48.744;10.106;2023-06-10T00:37:40;21.07;;;14.50;;
1010;SDS011;494;48.744;10.106;2023-06-10T00:40:10;19.90;;;13.80;;
1010;SDS011;494;48.744;10.106;2023-06-10T00:42:40;21.53;;;13.37;;
1010;SDS011;494;48.744;10.106;2023-06-10T00:45:09;19.83;;;14.10;;
1010;SDS011;494;48.744;10.106;2023-06-10T00:47:38;21.80;;;14.27;;
1010;SDS011;494;48.744;10.106;2023-06-10T00:50:08;19.57;;;13.33;;
1010;SDS011;494;48.744;10.106;2023-06-10T00:52:41;19.47;;;13.53;;
1010;SDS011;494;48.744;10.106;2023-06-10T00:55:13;20.23;;;13.63;;
1010;SDS011;494;48.744;10.106;2023-06-10T00:57:44;20.00;;;13.90;;
1010;SDS011;494;48.744;10.106;2023-06-10T01:00:15;19.40;;;13.70;;
1010;SDS011;494;48.744;10.106;2023-06-10T01:02:44;20.77;;;13.80;;
1010;SDS011;494;48.744;10.106;2023-06-10T01:05:13;20.70;;;14.30;;
1010;SDS011;494;48.744;10.106;2023-06-10T01:07:46;20.03;;;15.70;;
1010;SDS011;494;48.744;10.106;2023-06-10T01:10:29;20.87;;;15.37;;
1010;SDS011;494;48.744;10.106;2023-06-10T01:13:05;20.13;;;14.20;;
1010;SDS011;494;48.744;10.106;2023-06-10T01:15:38;19.80;;;13.73;;
1010;SDS011;494;48.744;10.106;2023-06-10T01:18:09;23.33;;;15.43;;
1010;SDS011;494;48.744;10.106;2023-06-10T01:20:42;20.27;;;14.10;;
1010;SDS011;494;48.744;10.106;2023-06-10T01:23:15;22.20;;;15.40;;
1010;SDS011;494;48.744;10.106;2023-06-10T01:25:47;20.10;;;14.90;;
1010;SDS011;494;48.744;10.106;2023-06-10T01:28:24;18.83;;;13.40;;
1010;SDS011;494;48.744;10.106;2023-06-10T01:31:04;19.23;;;13.83;;
1010;SDS011;494;48.744;10.106;2023-06-10T01:33:45;21.23;;;15.20;;
1010;SDS011;494;48.744;10.106;2023-06-10T01:36:21;19.40;;;13.87;;
1010;SDS011;494;48.744;10.106;2023-06-10T01:38:53;18.80;;;12.90;;
1010;SDS011;494;48.744;10.106;2023-06-10T01:41:23;19.73;;;13.63;;
1010;SDS011;494;48.744;10.106;2023-06-10T01:43:54;19.83;;;14.33;;
1010;SDS011;494;48.744;10.106;2023-06-10T01:46:23;19.63;;;12.23;;
1010;SDS011;494;48.744;10.106;2023-06-10T01:48:51;17.27;;;12.20;;
1010;SDS011;494;48.744;10.106;2023-06-10T01:51:20;20.00;;;11.57;;
1010;SDS011;494;48.744;10.106;2023-06-10T01:53:49;18.67;;;12.60;;
1010;SDS011;494;48.744;10.106;2023-06-10T01:56:19;19.33;;;12.80;;
1010;SDS011;494;48.744;10.106;2023-06-10T01:58:48;18.10;;;13.03;;
1010;SDS011;494;48.744;10.106;2023-06-10T02:01:18;18.10;;;13.23;;
1010;SDS011;494;48.744;10.106;2023-06-10T02:03:47;20.03;;;13.73;;
1010;SDS011;494;48.744;10.106;2023-06-10T02:06:16;19.03;;;13.17;;
1010;SDS011;494;48.744;10.106;2023-06-10T02:08:44;22.13;;;12.20;;
1010;SDS011;494;48.744;10.106;2023-06-10T02:11:13;20.47;;;16.23;;
1010;SDS011;494;48.744;10.106;2023-06-10T02:13:43;19.33;;;15.77;;
1010;SDS011;494;48.744;10.106;2023-06-10T02:16:12;20.33;;;16.07;;
1010;SDS011;494;48.744;10.106;2023-06-10T02:18:43;20.10;;;14.13;;
1010;SDS011;494;48.744;10.106;2023-06-10T02:21:12;22.70;;;16.27;;
1010;SDS011;494;48.744;10.106;2023-06-10T02:23:41;18.90;;;14.83;;
1010;SDS011;494;48.744;10.106;2023-06-10T02:26:10;19.37;;;15.40;;
1010;SDS011;494;48.744;10.106;2023-06-10T02:28:42;17.97;;;13.40;;
1010;SDS011;494;48.744;10.106;2023-06-10T02:31:12;19.10;;;12.80;;
1010;SDS011;494;48.744;10.106;2023-06-10T02:33:44;17.67;;;12.87;;
1010;SDS011;494;48.744;10.106;2023-06-10T02:36:13;18.90;;;13.77;;
1010;SDS011;494;48.744;10.106;2023-06-10T02:38:42;18.27;;;13.33;;
1010;SDS011;494;48.744;10.106;2023-06-10T02:41:10;20.13;;;13.53;;
1010;SDS011;494;48.744;10.106;2023-06-10T02:43:39;20.57;;;13.10;;
1010;SDS011;494;48.744;10.106;2023-06-10T02:46:09;19.03;;;13.10;;
1010;SDS011;494;48.744;10.106;2023-06-10T02:48:41;19.73;;;12.87;;
1010;SDS011;494;48.744;10.106;2023-06-10T02:51:11;18.40;;;13.23;;
1010;SDS011;494;48.744;10.106;2023-06-10T02:53:40;18.13;;;13.00;;
1010;SDS011;494;48.744;10.106;2023-06-10T02:56:09;17.67;;;13.07;;
1010;SDS011;494;48.744;10.106;2023-06-10T02:58:39;18.40;;;14.13;;
1010;SDS011;494;48.744;10.106;2023-06-10T03:01:13;17.13;;;13.13;;
1010;SDS011;494;48.744;10.106;2023-06-10T03:03:42;18.07;;;14.20;;
1010;SDS011;494;48.744;10.106;2023-06-10T03:06:13;18.67;;;13.90;;
1010;SDS011;494;48.744;10.106;2023-06-10T03:08:42;19.00;;;14.47;;
1010;SDS011;494;48.744;10.106;2023-06-10T03:11:12;19.30;;;14.87;;
1010;SDS011;494;48.744;10.106;2023-06-10T03:13:40;18.57;;;13.63;;
1010;SDS011;494;48.744;10.106;2023-06-10T03:16:09;19.60;;;15.20;;
1010;SDS011;494;48.744;10.106;2023-06-10T03:18:40;20.03;;;13.40;;
1010;SDS011;494;48.744;10.106;2023-06-10T03:21:11;19.10;;;13.30;;
1010;SDS011;494;48.744;10.106;2023-06-10T03:23:40;19.00;;;13.90;;
1010;SDS011;494;48.744;10.106;2023-06-10T03:26:09;18.43;;;14.10;;
1010;SDS011;494;48.744;10.106;2023-06-10T03:28:39;19.33;;;14.30;;
1010;SDS011;494;48.744;10.106;2023-06-10T03:31:08;20.73;;;18.10;;
1010;SDS011;494;48.744;10.106;2023-06-10T03:33:37;21.27;;;18.70;;
1010;SDS011;494;48.744;10.106;2023-06-10T03:36:07;21.53;;;19.23;;
1010;SDS011;494;48.744;10.106;2023-06-10T03:38:36;24.57;;;19.43;;
1010;SDS011;494;48.744;10.106;2023-06-10T03:41:05;22.60;;;18.87;;
1010;SDS011;494;48.744;10.106;2023-06-10T03:43:33;23.67;;;19.47;;
1010;SDS011;494;48.744;10.106;2023-06-10T03:46:02;22.33;;;19.30;;
1010;SDS011;494;48.744;10.106;2023-06-10T03:48:31;22.17;;;19.87;;
1010;SDS011;494;48.744;10.106;2023-06-10T03:51:00;20.90;;;18.57;;
1010;SDS011;494;48.744;10.106;2023-06-10T03:53:30;22.53;;;17.47;;
1010;SDS011;494;48.744;10.106;2023-06-10T03:56:01;19.10;;;16.60;;
1010;SDS011;494;48.744;10.106;2023-06-10T03:58:30;21.57;;;18.57;;
1010;SDS011;494;48.744;10.106;2023-06-10T04:00:59;21.40;;;18.80;;
1010;SDS011;494;48.744;10.106;2023-06-10T04:03:28;22.13;;;18.90;;
1010;SDS011;494;48.744;10.106;2023-06-10T04:05:58;22.20;;;19.80;;
1010;SDS011;494;48.744;10.106;2023-06-10T04:08:27;22.60;;;19.37;;
1010;SDS011;494;48.744;10.106;2023-06-10T04:11:03;21.03;;;18.83;;
1010;SDS011;494;48.744;10.106;2023-06-10T04:13:32;20.60;;;18.30;;
1010;SDS011;494;48.744;10.106;2023-06-10T04:16:00;22.27;;;19.20;;
1010;SDS011;494;48.744;10.106;2023-06-10T04:18:30;20.90;;;18.60;;
1010;SDS011;494;48.744;10.106;2023-06-10T04:20:59;22.87;;;19.37;;
1010;SDS011;494;48.744;10.106;2023-06-10T04:23:28;21.73;;;19.43;;
1010;SDS011;494;48.744;10.106;2023-06-10T04:25:56;21.00;;;18.77;;
1010;SDS011;494;48.744;10.106;2023-06-10T04:28:27;21.53;;;18.87;;
1010;SDS011;494;48.744;10.106;2023-06-10T04:30:56;21.90;;;18.37;;
1010;SDS011;494;48.744;10.106;2023-06-10T04:33:25;20.47;;;18.27;;
1010;SDS011;494;48.744;10.106;2023-06-10T04:35:55;22.27;;;19.97;;
1010;SDS011;494;48.744;10.106;2023-06-10T04:38:24;25.30;;;19.90;;
1010;SDS011;494;48.744;10.106;2023-06-10T04:40:53;30.27;;;19.60;;
1010;SDS011;494;48.744;10.106;2023-06-10T04:43:23;27.37;;;18.77;;
1010;SDS011;494;48.744;10.106;2023-06-10T04:45:51;24.20;;;19.40;;
1010;SDS011;494;48.744;10.106;2023-06-10T04:48:20;26.07;;;20.33;;
1010;SDS011;494;48.744;10.106;2023-06-10T04:50:50;22.13;;;18.70;;
1010;SDS011;494;48.744;10.106;2023-06-10T04:53:18;23.70;;;18.00;;
1010;SDS011;494;48.744;10.106;2023-06-10T04:55:47;21.03;;;17.60;;
1010;SDS011;494;48.744;10.106;2023-06-10T04:58:16;25.50;;;19.13;;
1010;SDS011;494;48.744;10.106;2023-06-10T05:00:49;21.70;;;16.37;;
1010;SDS011;494;48.744;10.106;2023-06-10T05:03:17;28.80;;;17.97;;
1010;SDS011;494;48.744;10.106;2023-06-10T05:05:47;20.37;;;15.20;;
1010;SDS011;494;48.744;10.106;2023-06-10T05:08:15;24.33;;;17.63;;
1010;SDS011;494;48.744;10.106;2023-06-10T05:10:45;22.80;;;17.57;;
1010;SDS011;494;48.744;10.106;2023-06-10T05:13:14;23.93;;;18.53;;
1010;SDS011;494;48.744;10.106;2023-06-10T05:15:44;24.90;;;18.80;;
1010;SDS011;494;48.744;10.106;2023-06-10T05:18:14;24.73;;;18.23;;
1010;SDS011;494;48.744;10.106;2023-06-10T05:20:43;24.90;;;18.70;;
1010;SDS011;494;48.744;10.106;2023-06-10T05:23:13;23.17;;;18.80;;
1010;SDS011;494;48.744;10.106;2023-06-10T05:25:42;25.70;;;18.43;;
1010;SDS011;494;48.744;10.106;2023-06-10T05:28:11;23.60;;;17.87;;
1010;SDS011;494;48.744;10.106;2023-06-10T05:30:41;26.30;;;16.90;;
1010;SDS011;494;48.744;10.106;2023-06-10T05:33:12;21.50;;;18.40;;
1010;SDS011;494;48.744;10.106;2023-06-10T05:35:40;22.23;;;18.37;;
1010;SDS011;494;48.744;10.106;2023-06-10T05:38:09;21.20;;;18.80;;
1010;SDS011;494;48.744;10.106;2023-06-10T05:40:38;22.13;;;18.53;;
1010;SDS011;494;48.744;10.106;2023-06-10T05:43:06;22.23;;;18.17;;
1010;SDS011;494;48.744;10.106;2023-06-10T05:45:36;21.50;;;18.47;;
1010;SDS011;494;48.744;10.106;2023-06-10T05:48:07;22.80;;;17.90;;
1010;SDS011;494;48.744;10.106;2023-06-10T05:50:37;19.47;;;15.60;;
1010;SDS011;494;48.744;10.106;2023-06-10T05:53:09;20.20;;;16.10;;
1010;SDS011;494;48.744;10.106;2023-06-10T05:55:42;20.90;;;16.30;;
1010;SDS011;494;48.744;10.106;2023-06-10T05:58:11;20.93;;;16.43;;
1010;SDS011;494;48.744;10.106;2023-06-10T06:00:41;20.30;;;16.47;;
1010;SDS011;494;48.744;10.106;2023-06-10T06:03:10;22.60;;;17.93;;
1010;SDS011;494;48.744;10.106;2023-06-10T06:05:40;22.57;;;16.03;;
1010;SDS011;494;48.744;10.106;2023-06-10T06:08:09;20.03;;;12.67;;
1010;SDS011;494;48.744;10.106;2023-06-10T06:10:39;19.03;;;13.00;;
1010;SDS011;494;48.744;10.106;2023-06-10T06:13:08;18.57;;;13.13;;
1010;SDS011;494;48.744;10.106;2023-06-10T06:15:37;20.53;;;13.00;;
1010;SDS011;494;48.744;10.106;2023-06-10T06:18:05;21.20;;;11.73;;
1010;SDS011;494;48.744;10.106;2023-06-10T06:20:34;17.87;;;11.93;;
1010;SDS011;494;48.744;10.106;2023-06-10T06:23:04;19.03;;;12.70;;
1010;SDS011;494;48.744;10.106;2023-06-10T06:25:35;16.97;;;11.97;;
1010;SDS011;494;48.744;10.106;2023-06-10T06:28:05;18.93;;;12.87;;
1010;SDS011;494;48.744;10.106;2023-06-10T06:30:35;20.80;;;13.20;;
1010;SDS011;494;48.744;10.106;2023-06-10T06:33:04;21.53;;;11.77;;
1010;SDS011;494;48.744;10.106;2023-06-10T06:35:33;18.00;;;11.33;;
1010;SDS011;494;48.744;10.106;2023-06-10T06:38:03;17.63;;;10.90;;
1010;SDS011;494;48.744;10.106;2023-06-10T06:40:32;17.80;;;11.33;;
1010;SDS011;494;48.744;10.106;2023-06-10T06:43:00;22.37;;;12.17;;
1010;SDS011;494;48.744;10.106;2023-06-10T06:45:29;16.57;;;10.63;;
1010;SDS011;494;48.744;10.106;2023-06-10T06:48:00;21.40;;;11.03;;
1010;SDS011;494;48.744;10.106;2023-06-10T06:50:29;19.77;;;11.33;;
1010;SDS011;494;48.744;10.106;2023-06-10T06:52:58;18.20;;;10.33;;
1010;SDS011;494;48.744;10.106;2023-06-10T06:55:28;19.60;;;9.83;;
1010;SDS011;494;48.744;10.106;2023-06-10T06:57:56;17.13;;;10.00;;
1010;SDS011;494;48.744;10.106;2023-06-10T07:00:29;16.33;;;9.90;;
1010;SDS011;494;48.744;10.106;2023-06-10T07:02:58;16.93;;;10.23;;
1010;SDS011;494;48.744;10.106;2023-06-10T07:05:27;16.53;;;9.77;;
1010;SDS011;494;48.744;10.106;2023-06-10T07:07:56;15.90;;;9.53;;
1010;SDS011;494;48.744;10.106;2023-06-10T07:10:25;16.80;;;9.43;;
1010;SDS011;494;48.744;10.106;2023-06-10T07:12:56;16.37;;;9.90;;
1010;SDS011;494;48.744;10.106;2023-06-10T07:15:25;15.80;;;9.90;;
1010;SDS011;494;48.744;10.106;2023-06-10T07:17:53;16.43;;;9.17;;
1010;SDS011;494;48.744;10.106;2023-06-10T07:20:23;17.17;;;9.97;;
1010;SDS011;494;48.744;10.106;2023-06-10T07:22:51;16.83;;;9.97;;
1010;SDS011;494;48.744;10.106;2023-06-10T07:25:20;16.13;;;9.50;;
1010;SDS011;494;48.744;10.106;2023-06-10T07:27:50;15.73;;;9.70;;
1010;SDS011;494;48.744;10.106;2023-06-10T07:30:19;16.60;;;9.93;;
1010;SDS011;494;48.744;10.106;2023-06-10T07:32:47;18.37;;;10.30;;
1010;SDS011;494;48.744;10.106;2023-06-10T07:35:17;16.20;;;9.80;;
1010;SDS011;494;48.744;10.106;2023-06-10T07:37:46;17.03;;;9.93;;
1010;SDS011;494;48.744;10.106;2023-06-10T07:40:15;17.30;;;9.60;;
1010;SDS011;494;48.744;10.106;2023-06-10T07:42:43;16.23;;;9.77;;
1010;SDS011;494;48.744;10.106;2023-06-10T07:45:13;16.90;;;9.80;;
1010;SDS011;494;48.744;10.106;2023-06-10T07:47:42;17.90;;;10.00;;
1010;SDS011;494;48.744;10.106;2023-06-10T07:50:11;16.90;;;10.07;;
1010;SDS011;494;48.744;10.106;2023-06-10T07:52:40;16.90;;;10.70;;
1010;SDS011;494;48.744;10.106;2023-06-10T07:55:09;17.43;;;10.27;;
1010;SDS011;494;48.744;10.106;2023-06-10T07:57:38;18.10;;;10.73;;
1010;SDS011;494;48.744;10.106;2023-06-10T08:00:07;18.00;;;10.80;;
1010;SDS011;494;48.744;10.106;2023-06-10T08:02:39;17.30;;;10.37;;
1010;SDS011;494;48.744;10.106;2023-06-10T08:05:08;16.20;;;10.00;;
1010;SDS011;494;48.744;10.106;2023-06-10T08:07:37;16.03;;;10.00;;
1010;SDS011;494;48.744;10.106;2023-06-10T08:10:07;17.37;;;10.20;;
1010;SDS011;494;48.744;10.106;2023-06-10T08:12:36;18.30;;;10.83;;
1010;SDS011;494;48.744;10.106;2023-06-10T08:15:05;16.43;;;10.20;;
1010;SDS011;494;48.744;10.106;2023-06-10T08:17:36;18.67;;;10.90;;
1010;SDS011;494;48.744;10.106;2023-06-10T08:20:07;18.60;;;11.30;;
1010;SDS011;494;48.744;10.106;2023-06-10T08:22:36;17.40;;;11.67;;
1010;SDS011;494;48.744;10.106;2023-06-10T08:25:06;18.97;;;11.70;;
1010;SDS011;494;48.744;10.106;2023-06-10T08:27:37;18.60;;;12.13;;
1010;SDS011;494;48.744;10.106;2023-06-10T08:30:06;18.40;;;11.50;;
1010;SDS011;494;48.744;10.106;2023-06-10T08:32:38;19.20;;;12.03;;
1010;SDS011;494;48.744;10.106;2023-06-10T08:35:08;19.80;;;11.23;;
1010;SDS011;494;48.744;10.106;2023-06-10T08:37:37;17.53;;;10.90;;
1010;SDS011;494;48.744;10.106;2023-06-10T08:40:07;17.20;;;10.97;;
1010;SDS011;494;48.744;10.106;2023-06-10T08:42:38;20.87;;;12.00;;
1010;SDS011;494;48.744;10.106;2023-06-10T08:45:16;17.30;;;11.10;;
1010;SDS011;494;48.744;10.106;2023-06-10T08:47:48;17.50;;;11.57;;
1010;SDS011;494;48.744;10.106;2023-06-10T08:50:19;20.93;;;12.30;;
1010;SDS011;494;48.744;10.106;2023-06-10T08:52:50;17.77;;;11.77;;
1010;SDS011;494;48.744;10.106;2023-06-10T08:55:25;18.87;;;12.10;;
1010;SDS011;494;48.744;10.106;2023-06-10T08:57:59;18.43;;;11.53;;
1010;SDS011;494;48.744;10.106;2023-06-10T09:00:28;17.70;;;10.87;;
1010;SDS011;494;48.744;10.106;2023-06-10T09:02:59;17.30;;;11.37;;
1010;SDS011;494;48.744;10.106;2023-06-10T09:05:32;19.90;;;12.33;;
1010;SDS011;494;48.744;10.106;2023-06-10T09:08:03;19.73;;;11.57;;
1010;SDS011;494;48.744;10.106;2023-06-10T09:10:33;18.70;;;11.87;;
1010;SDS011;494;48.744;10.106;2023-06-10T09:13:02;18.73;;;12.23;;
1010;SDS011;494;48.744;10.106;2023-06-10T09:15:31;20.20;;;12.30;;
1010;SDS011;494;48.744;10.106;2023-06-10T09:18:02;17.77;;;11.47;;
1010;SDS011;494;48.744;10.106;2023-06-10T09:20:32;17.43;;;11.47;;
1010;SDS011;494;48.744;10.106;2023-06-10T09:23:00;18.57;;;11.40;;
1010;SDS011;494;48.744;10.106;2023-06-10T09:25:36;20.03;;;11.50;;
1010;SDS011;494;48.744;10.106;2023-06-10T09:28:12;21.43;;;11.57;;
1010;SDS011;494;48.744;10.106;2023-06-10T09:30:42;18.30;;;11.43;;
1010;SDS011;494;48.744;10.106;2023-06-10T09:33:13;17.10;;;11.70;;
1010;SDS011;494;48.744;10.106;2023-06-10T09:35:46;18.80;;;12.00;;
1010;SDS011;494;48.744;10.106;2023-06-10T09:38:19;19.47;;;12.13;;
1010;SDS011;494;48.744;10.106;2023-06-10T09:40:49;19.60;;;12.70;;
1010;SDS011;494;48.744;10.106;2023-06-10T09:43:19;18.57;;;11.67;;
1010;SDS011;494;48.744;10.106;2023-06-10T09:45:49;17.70;;;11.33;;
1010;SDS011;494;48.744;10.106;2023-06-10T09:48:21;17.23;;;10.43;;
1010;SDS011;494;48.744;10.106;2023-06-10T09:50:50;20.90;;;11.60;;
1010;SDS011;494;48.744;10.106;2023-06-10T09:53:19;17.73;;;10.10;;
1010;SDS011;494;48.744;10.106;2023-06-10T09:55:48;17.77;;;11.37;;
1010;SDS011;494;48.744;10.106;2023-06-10T09:58:23;16.47;;;10.27;;
1010;SDS011;494;48.744;10.106;2023-06-10T10:01:06;17.47;;;10.43;;
1010;SDS011;494;48.744;10.106;2023-06-10T10:03:45;16.80;;;9.40;;
1010;SDS011;494;48.744;10.106;2023-06-10T10:06:15;17.40;;;9.80;;
1010;SDS011;494;48.744;10.106;2023-06-10T10:08:46;15.83;;;9.80;;
1010;SDS011;494;48.744;10.106;2023-06-10T10:11:17;17.57;;;9.47;;
1010;SDS011;494;48.744;10.106;2023-06-10T10:13:49;16.00;;;10.30;;
1010;SDS011;494;48.744;10.106;2023-06-10T10:16:20;18.17;;;10.80;;
1010;SDS011;494;48.744;10.106;2023-06-10T10:18:58;16.57;;;9.63;;
1010;SDS011;494;48.744;10.106;2023-06-10T10:21:38;16.40;;;10.20;;
1010;SDS011;494;48.744;10.106;2023-06-10T10:24:26;17.87;;;10.07;;
1010;SDS011;494;48.744;10.106;2023-06-10T10:27:03;16.07;;;9.63;;
1010;SDS011;494;48.744;10.106;2023-06-10T10:29:41;16.50;;;9.20;;
1010;SDS011;494;48.744;10.106;2023-06-10T10:32:18;16.17;;;9.13;;
1010;SDS011;494;48.744;10.106;2023-06-10T10:34:56;15.23;;;8.60;;
1010;SDS011;494;48.744;10.106;2023-06-10T10:37:35;15.17;;;8.70;;
1010;SDS011;494;48.744;10.106;2023-06-10T10:40:04;16.17;;;9.30;;
1010;SDS011;494;48.744;10.106;2023-06-10T10:42:35;16.23;;;9.63;;
1010;SDS011;494;48.744;10.106;2023-06-10T10:45:07;16.87;;;10.57;;
1010;SDS011;494;48.744;10.106;2023-06-10T10:47:38;16.20;;;9.00;;
1010;SDS011;494;48.744;10.106;2023-06-10T10:50:17;16.77;;;10.00;;
1010;SDS011;494;48.744;10.106;2023-06-10T10:52:54;16.80;;;9.57;;
1010;SDS011;494;48.744;10.106;2023-06-10T10:55:24;16.83;;;9.87;;
1010;SDS011;494;48.744;10.106;2023-06-10T10:57:54;16.40;;;9.27;;
1010;SDS011;494;48.744;10.106;2023-06-10T11:00:25;16.70;;;9.90;;
1010;SDS011;494;48.744;10.106;2023-06-10T11:02:59;15.67;;;8.83;;
1010;SDS011;494;48.744;10.106;2023-06-10T11:05:39;15.70;;;8.70;;
1010;SDS011;494;48.744;10.106;2023-06-10T11:08:11;16.23;;;9.37;;
1010;SDS011;494;48.744;10.106;2023-06-10T11:10:41;19.10;;;9.10;;
1010;SDS011;494;48.744;10.106;2023-06-10T11:13:20;15.80;;;9.10;;
1010;SDS011;494;48.744;10.106;2023-06-10T11:15:50;16.20;;;9.87;;
1010;SDS011;494;48.744;10.106;2023-06-10T11:18:22;17.90;;;10.40;;
1010;SDS011;494;48.744;10.106;2023-06-10T11:20:54;18.90;;;10.30;;
1010;SDS011;494;48.744;10.106;2023-06-10T11:26:15;17.20;;;10.00;;
1010;SDS011;494;48.744;10.106;2023-06-10T11:29:06;16.03;;;9.27;;
1010;SDS011;494;48.744;10.106;2023-06-10T11:31:43;16.77;;;10.23;;
1010;SDS011;494;48.744;10.106;2023-06-10T11:34:21;16.50;;;10.13;;
1010;SDS011;494;48.744;10.106;2023-06-10T11:36:53;18.67;;;10.03;;
1010;SDS011;494;48.744;10.106;2023-06-10T11:39:22;18.50;;;10.40;;
1010;SDS011;494;48.744;10.106;2023-06-10T11:41:53;16.77;;;10.80;;
1010;SDS011;494;48.744;10.106;2023-06-10T11:44:22;18.40;;;10.70;;
1010;SDS011;494;48.744;10.106;2023-06-10T11:46:56;18.60;;;11.47;;
1010;SDS011;494;48.744;10.106;2023-06-10T11:49:25;18.10;;;10.00;;
1010;SDS011;494;48.744;10.106;2023-06-10T11:51:55;18.37;;;10.33;;
1010;SDS011;494;48.744;10.106;2023-06-10T11:54:24;16.97;;;9.97;;
1010;SDS011;494;48.744;10.106;2023-06-10T11:56:56;17.30;;;10.20;;
1010;SDS011;494;48.744;10.106;2023-06-10T11:59:26;19.03;;;10.30;;
1010;SDS011;494;48.744;10.106;2023-06-10T12:01:56;18.30;;;10.30;;
1010;SDS011;494;48.744;10.106;2023-06-10T12:04:26;18.00;;;10.23;;
1010;SDS011;494;48.744;10.106;2023-06-10T12:06:56;17.30;;;9.97;;
1010;SDS011;494;48.744;10.106;2023-06-10T12:09:25;16.53;;;10.17;;
1010;SDS011;494;48.744;10.106;2023-06-10T12:11:57;16.83;;;10.77;;
1010;SDS011;494;48.744;10.106;2023-06-10T12:17:35;15.10;;;8.87;;
1010;SDS011;494;48.744;10.106;2023-06-10T12:20:06;17.10;;;9.33;;
1010;SDS011;494;48.744;10.106;2023-06-10T12:22:40;18.00;;;10.53;;
1010;SDS011;494;48.744;10.106;2023-06-10T12:25:12;16.93;;;10.03;;
1010;SDS011;494;48.744;10.106;2023-06-10T12:27:50;16.60;;;9.90;;
1010;SDS011;494;48.744;10.106;2023-06-10T12:30:20;16.60;;;9.83;;
1010;SDS011;494;48.744;10.106;2023-06-10T12:32:51;17.03;;;9.20;;
1010;SDS011;494;48.744;10.106;2023-06-10T12:35:22;18.27;;;9.93;;
1010;SDS011;494;48.744;10.106;2023-06-10T12:37:58;18.43;;;9.57;;
1010;SDS011;494;48.744;10.106;2023-06-10T12:40:30;18.63;;;10.87;;
1010;SDS011;494;48.744;10.106;2023-06-10T12:43:01;19.40;;;10.23;;
1010;SDS011;494;48.744;10.106;2023-06-10T12:45:31;17.80;;;10.33;;
1010;SDS011;494;48.744;10.106;2023-06-10T12:48:04;18.97;;;9.90;;
1010;SDS011;494;48.744;10.106;2023-06-10T12:50:36;18.13;;;10.00;;
1010;SDS011;494;48.744;10.106;2023-06-10T12:53:09;17.17;;;10.27;;
1010;SDS011;494;48.744;10.106;2023-06-10T12:55:39;20.80;;;10.20;;
1010;SDS011;494;48.744;10.106;2023-06-10T12:58:07;16.93;;;9.80;;
1010;SDS011;494;48.744;10.106;2023-06-10T13:00:36;16.23;;;9.33;;
1010;SDS011;494;48.744;10.106;2023-06-10T13:03:06;18.80;;;9.50;;
1010;SDS011;494;48.744;10.106;2023-06-10T13:05:35;15.03;;;9.00;;
1010;SDS011;494;48.744;10.106;2023-06-10T13:08:05;19.73;;;9.90;;
1010;SDS011;494;48.744;10.106;2023-06-10T13:10:38;16.57;;;10.00;;
1010;SDS011;494;48.744;10.106;2023-06-10T13:13:07;17.80;;;8.97;;
1010;SDS011;494;48.744;10.106;2023-06-10T13:15:38;18.30;;;9.33;;
1010;SDS011;494;48.744;10.106;2023-06-10T13:18:09;15.50;;;8.97;;
1010;SDS011;494;48.744;10.106;2023-06-10T13:20:38;15.20;;;7.80;;
1010;SDS011;494;48.744;10.106;2023-06-10T13:23:07;16.27;;;9.80;;
1010;SDS011;494;48.744;10.106;2023-06-10T13:25:38;16.83;;;9.20;;
1010;SDS011;494;48.744;10.106;2023-06-10T13:28:07;20.77;;;13.77;;
1010;SDS011;494;48.744;10.106;2023-06-10T13:30:36;16.67;;;10.27;;
1010;SDS011;494;48.744;10.106;2023-06-10T13:33:04;17.47;;;9.63;;
1010;SDS011;494;48.744;10.106;2023-06-10T13:35:33;17.80;;;8.60;;
1010;SDS011;494;48.744;10.106;2023-06-10T13:38:02;17.60;;;8.40;;
1010;SDS011;494;48.744;10.106;2023-06-10T13:40:31;14.67;;;7.57;;
1010;SDS011;494;48.744;10.106;2023-06-10T13:43:01;14.70;;;7.77;;
1010;SDS011;494;48.744;10.106;2023-06-10T13:45:30;14.93;;;7.97;;
1010;SDS011;494;48.744;10.106;2023-06-10T13:47:58;15.63;;;7.43;;
1010;SDS011;494;48.744;10.106;2023-06-10T13:50:27;15.23;;;8.37;;
1010;SDS011;494;48.744;10.106;2023-06-10T13:52:56;16.20;;;8.67;;
1010;SDS011;494;48.744;10.106;2023-06-10T13:55:28;15.60;;;9.00;;
1010;SDS011;494;48.744;10.106;2023-06-10T13:57:57;16.17;;;8.90;;
1010;SDS011;494;48.744;10.106;2023-06-10T14:00:27;16.67;;;9.10;;
1010;SDS011;494;48.744;10.106;2023-06-10T14:02:56;15.80;;;9.70;;
1010;SDS011;494;48.744;10.106;2023-06-10T14:05:25;16.00;;;8.60;;
1010;SDS011;494;48.744;10.106;2023-06-10T14:07:57;17.47;;;9.43;;
1010;SDS011;494;48.744;10.106;2023-06-10T14:10:25;16.97;;;9.77;;
1010;SDS011;494;48.744;10.106;2023-06-10T14:12:54;18.50;;;11.17;;
1010;SDS011;494;48.744;10.106;2023-06-10T14:15:23;39.90;;;35.90;;
1010;SDS011;494;48.744;10.106;2023-06-10T14:17:53;19.30;;;11.10;;
1010;SDS011;494;48.744;10.106;2023-06-10T14:20:22;17.40;;;9.77;;
1010;SDS011;494;48.744;10.106;2023-06-10T14:22:52;16.63;;;9.50;;
1010;SDS011;494;48.744;10.106;2023-06-10T14:25:20;16.90;;;10.37;;
1010;SDS011;494;48.744;10.106;2023-06-10T14:27:49;16.80;;;10.03;;
1010;SDS011;494;48.744;10.106;2023-06-10T14:30:17;15.30;;;8.43;;
1010;SDS011;494;48.744;10.106;2023-06-10T14:32:46;16.93;;;10.20;;
1010;SDS011;494;48.744;10.106;2023-06-10T14:35:16;17.87;;;10.20;;
1010;SDS011;494;48.744;10.106;2023-06-10T14:37:45;16.67;;;10.13;;
1010;SDS011;494;48.744;10.106;2023-06-10T14:40:13;16.37;;;9.70;;
1010;SDS011;494;48.744;10.106;2023-06-10T14:42:42;15.67;;;8.80;;
1010;SDS011;494;48.744;10.106;2023-06-10T14:45:11;15.80;;;9.40;;
1010;SDS011;494;48.744;10.106;2023-06-10T14:47:41;16.93;;;8.40;;
1010;SDS011;494;48.744;10.106;2023-06-10T14:50:10;16.10;;;8.87;;
1010;SDS011;494;48.744;10.106;2023-06-10T14:52:40;20.80;;;9.00;;
1010;SDS011;494;48.744;10.106;2023-06-10T14:55:08;15.40;;;8.60;;
1010;SDS011;494;48.744;10.106;2023-06-10T14:57:38;16.40;;;9.00;;
1010;SDS011;494;48.744;10.106;2023-06-10T15:00:07;21.60;;;15.33;;
1010;SDS011;494;48.744;10.106;2023-06-10T15:02:37;21.23;;;12.17;;
1010;SDS011;494;48.744;10.106;2023-06-10T15:05:09;17.67;;;9.27;;
1010;SDS011;494;48.744;10.106;2023-06-10T15:07:39;17.00;;;9.37;;
1010;SDS011;494;48.744;10.106;2023-06-10T15:10:08;17.40;;;9.47;;
1010;SDS011;494;48.744;10.106;2023-06-10T15:12:37;18.23;;;9.77;;
1010;SDS011;494;48.744;10.106;2023-06-10T15:15:11;355.50;;;21.97;;